createdAt,value
2023-05-03T00:01:57.889Z,100912.03
2023-05-03T00:04:13.613Z,100912.03
2023-05-03T00:06:24.682Z,100914.39
2023-05-03T00:08:36.666Z,100912.94
2023-05-03T00:10:46.686Z,100916.38
2023-05-03T00:12:58.123Z,100918.45
2023-05-03T00:15:08.812Z,100922.02
2023-05-03T00:17:19.890Z,100922.83
2023-05-03T00:19:33.663Z,100921.48
2023-05-03T00:21:48.135Z,100924.36
2023-05-03T00:24:18.606Z,100928.2
2023-05-03T00:26:32.680Z,100924.21
2023-05-03T00:29:02.568Z,100929.06
2023-05-03T00:31:12.757Z,100928.05
2023-05-03T00:33:28.806Z,100930.09
2023-05-03T00:35:42.981Z,100928.48
2023-05-03T00:37:56.516Z,100929.28
2023-05-03T00:40:22.169Z,100925.52
2023-05-03T00:42:35.831Z,100925.95
2023-05-03T00:44:56.628Z,100925.66
2023-05-03T00:47:05.786Z,100930.18
2023-05-03T00:49:20.079Z,100930.52
2023-05-03T00:51:34.142Z,100926.77
2023-05-03T00:53:49.060Z,100929.64
2023-05-03T00:56:02.391Z,100928.54
2023-05-03T00:58:15.894Z,100928.33
2023-05-03T01:00:33.490Z,100926.23
2023-05-03T01:02:49.735Z,100926.34
2023-05-03T01:04:57.897Z,100928
2023-05-03T01:07:10.525Z,100926.19
2023-05-03T01:09:18.375Z,100923.88
2023-05-03T01:11:29.868Z,100919.45
2023-05-03T01:13:45.131Z,100923.65
2023-05-03T01:15:54.693Z,100926.19
2023-05-03T01:18:09.111Z,100932.43
2023-05-03T01:20:24.430Z,100939.06
2023-05-03T01:22:46.508Z,100939.97
2023-05-03T01:25:01.788Z,100944.2
2023-05-03T01:27:13.732Z,100942.44
2023-05-03T01:29:33.274Z,100941.36
2023-05-03T01:31:45.209Z,100946.22
2023-05-03T01:34:04.508Z,100950.91
2023-05-03T01:36:17.433Z,100950.86
2023-05-03T01:38:28.280Z,100953.31
2023-05-03T01:40:46.435Z,100957.51
2023-05-03T01:42:55.762Z,100961.25
2023-05-03T01:45:19.073Z,100964.03
2023-05-03T01:47:35.886Z,100971.64
2023-05-03T01:49:48.602Z,100971.84
2023-05-03T01:51:59.686Z,100975.1
2023-05-03T01:54:13.356Z,100976.44
2023-05-03T01:56:23.286Z,100974.3
2023-05-03T01:58:41.076Z,100973.52
2023-05-03T02:00:52.799Z,100978.3
2023-05-03T02:03:10.053Z,100981.75
2023-05-03T02:05:22.524Z,100982.98
2023-05-03T02:07:37.581Z,100982.52
2023-05-03T02:09:49.824Z,100981.08
2023-05-03T02:12:09.075Z,100987.55
2023-05-03T02:14:28.128Z,100986.84
2023-05-03T02:16:38.590Z,100984.48
2023-05-03T02:18:55.327Z,100985.71
2023-05-03T02:21:07.354Z,100989.3
2023-05-03T02:23:28.972Z,100987.47
2023-05-03T02:25:38.216Z,100984.41
2023-05-03T02:28:02.669Z,100994.47
2023-05-03T02:30:18.506Z,100995.58
2023-05-03T02:32:29.237Z,100997.98
2023-05-03T02:34:50.070Z,100992.44
2023-05-03T02:37:05.055Z,100996.48
2023-05-03T02:39:22.926Z,100993.31
2023-05-03T02:41:39.556Z,100991.09
2023-05-03T02:46:23.247Z,100992.2
2023-05-03T02:48:38.421Z,100993.36
2023-05-03T02:50:51.438Z,100987.67
2023-05-03T02:53:03.143Z,100992.88
2023-05-03T02:55:13.069Z,100996.75
2023-05-03T02:57:29.218Z,100995.27
2023-05-03T02:59:41.742Z,100995.55
2023-05-03T03:01:55.005Z,100999.06
2023-05-03T03:04:07.376Z,101003.42
2023-05-03T03:06:24.327Z,101011.34
2023-05-03T03:08:34.665Z,101012.55
2023-05-03T03:11:01.115Z,101011.73
2023-05-03T03:13:23.617Z,100995.3
2023-05-03T03:15:37.009Z,100994.39
2023-05-03T03:17:51.570Z,100999.33
2023-05-03T03:20:14.088Z,100995.7
2023-05-03T03:22:28.456Z,100992.16
2023-05-03T03:24:43.593Z,100986.84
2023-05-03T03:26:54.664Z,100987.28
2023-05-03T03:29:10.769Z,100981.02
2023-05-03T03:31:19.837Z,100980.11
2023-05-03T03:33:44.429Z,100982.46
2023-05-03T03:36:13.382Z,100985.06
2023-05-03T03:38:41.250Z,100992.27
2023-05-03T03:40:58.326Z,100992.55
2023-05-03T03:43:16.422Z,100990.52
2023-05-03T03:45:23.716Z,100994.28
2023-05-03T03:47:47.823Z,100992.92
2023-05-03T03:50:07.423Z,101005.27
2023-05-03T03:52:19.774Z,101010.73
2023-05-03T03:54:30.018Z,101019.13
2023-05-03T03:56:46.297Z,101024.27
2023-05-03T03:58:59.506Z,101034.44
2023-05-03T04:01:24.750Z,101034.81
2023-05-03T04:03:34.739Z,101032.34
2023-05-03T04:05:50.270Z,101036.33
2023-05-03T04:08:01.064Z,101036.33
2023-05-03T04:10:12.482Z,101039.59
2023-05-03T04:12:31.831Z,101043.83
2023-05-03T04:14:41.930Z,101037.04
2023-05-03T04:17:04.244Z,101030.7
2023-05-03T04:19:16.041Z,101031.89
2023-05-03T04:21:33.061Z,101032.7
2023-05-03T04:23:46.972Z,101037.77
2023-05-03T04:25:56.027Z,101035.47
2023-05-03T04:28:11.520Z,101035.59
2023-05-03T04:30:33.075Z,101039.25
2023-05-03T04:32:45.103Z,101044.7
2023-05-03T04:35:04.830Z,101040.77
2023-05-03T04:37:24.684Z,101044.31
2023-05-03T04:39:36.940Z,101044.5
2023-05-03T04:41:50.531Z,101044.05
2023-05-03T04:44:01.259Z,101051.1
2023-05-03T04:46:17.470Z,101052.1
2023-05-03T04:48:34.062Z,101058.79
2023-05-03T04:50:48.436Z,101056.78
2023-05-03T04:53:02.080Z,101062.34
2023-05-03T04:55:16.380Z,101064.7
2023-05-03T04:57:32.963Z,101059.05
2023-05-03T04:59:47.161Z,101066.95
2023-05-03T05:01:57.661Z,101067.62
2023-05-03T05:04:11.941Z,101065.86
2023-05-03T05:06:24.287Z,101070.1
2023-05-03T05:08:41.525Z,101071.62
2023-05-03T05:10:55.106Z,101077.81
2023-05-03T05:13:14.345Z,101084.58
2023-05-03T05:15:31.048Z,101088.41
2023-05-03T05:17:44.343Z,101086.41
2023-05-03T05:19:58.876Z,101085.3
2023-05-03T05:22:16.283Z,101090.87
2023-05-03T05:24:27.724Z,101086.13
2023-05-03T05:26:46.228Z,101075.59
2023-05-03T05:29:00.061Z,101075.66
2023-05-03T05:31:22.028Z,101079.16
2023-05-03T05:33:43.700Z,101077.06
2023-05-03T05:35:56.238Z,101078.55
2023-05-03T05:38:13.777Z,101082.23
2023-05-03T05:40:21.678Z,101087.48
2023-05-03T05:42:31.180Z,101087.01
2023-05-03T05:44:40.463Z,101089.81
2023-05-03T05:46:52.358Z,101092.92
2023-05-03T05:49:12.148Z,101098.66
2023-05-03T05:51:22.586Z,101101.63
2023-05-03T05:53:40.938Z,101098.92
2023-05-03T05:55:49.665Z,101098.38
2023-05-03T05:58:05.818Z,101108.07
2023-05-03T06:00:16.419Z,101098.45
2023-05-03T06:02:29.340Z,101087.61
2023-05-03T06:04:38.372Z,101098.97
2023-05-03T06:06:51.980Z,101100.44
2023-05-03T06:11:37.349Z,101111.85
2023-05-03T06:13:54.065Z,101118.38
2023-05-03T06:16:04.899Z,101117.8
2023-05-03T06:18:16.270Z,101118.02
2023-05-03T06:20:24.965Z,101120.09
2023-05-03T06:22:34.432Z,101120.2
2023-05-03T06:24:49.103Z,101127.77
2023-05-03T06:27:07.694Z,101126.74
2023-05-03T06:29:23.010Z,101128.8
2023-05-03T06:31:34.163Z,101134.45
2023-05-03T06:33:50.243Z,101132.59
2023-05-03T06:36:02.184Z,101141.05
2023-05-03T06:38:12.930Z,101138.7
2023-05-03T06:40:24.351Z,101145.01
2023-05-03T06:42:36.943Z,101143.23
2023-05-03T06:44:48.319Z,101143.39
2023-05-03T06:47:00.491Z,101148.91
2023-05-03T06:49:11.597Z,101148.64
2023-05-03T06:51:21.553Z,101148.02
2023-05-03T06:53:33.416Z,101150.69
2023-05-03T06:55:43.805Z,101153.59
2023-05-03T06:57:54.743Z,101156.73
2023-05-03T07:00:05.793Z,101159.03
2023-05-03T07:02:14.387Z,101162.16
2023-05-03T07:04:37.544Z,101156.41
2023-05-03T07:06:58.699Z,101162.05
2023-05-03T07:09:12.129Z,101163.38
2023-05-03T07:11:20.428Z,101160.45
2023-05-03T07:13:45.070Z,101162.85
2023-05-03T07:15:53.793Z,101158.35
2023-05-03T07:18:10.472Z,101155.47
2023-05-03T07:20:20.033Z,101161.63
2023-05-03T07:22:31.610Z,101167.61
2023-05-03T07:24:43.164Z,101165.84
2023-05-03T07:26:50.966Z,101166.52
2023-05-03T07:28:58.512Z,101163.38
2023-05-03T07:31:07.310Z,101163.59
2023-05-03T07:33:17.695Z,101163.01
2023-05-03T07:35:43.863Z,101159.77
2023-05-03T07:37:52.438Z,101168.77
2023-05-03T07:40:05.917Z,101167.15
2023-05-03T07:42:26.426Z,101170.78
2023-05-03T07:44:38.587Z,101171.04
2023-05-03T07:46:48.487Z,101170.62
2023-05-03T07:48:56.611Z,101172.97
2023-05-03T07:51:07.353Z,101174.72
2023-05-03T07:53:20.869Z,101170.33
2023-05-03T07:55:42.037Z,101173.08
2023-05-03T07:58:08.442Z,101166.77
2023-05-03T08:00:16.440Z,101171.16
2023-05-03T08:02:26.402Z,101171.67
2023-05-03T08:04:39.188Z,101173.02
2023-05-03T08:06:57.646Z,101175.42
2023-05-03T08:09:10.356Z,101172.84
2023-05-03T08:11:18.275Z,101173.16
2023-05-03T08:13:30.149Z,101170.05
2023-05-03T08:15:38.754Z,101175.77
2023-05-03T08:17:51.960Z,101172.67
2023-05-03T08:20:02.232Z,101169.03
2023-05-03T08:22:16.480Z,101172.59
2023-05-03T08:24:27.248Z,101169.03
2023-05-03T08:26:38.857Z,101171.41
2023-05-03T08:28:54.232Z,101171.75
2023-05-03T08:31:08.063Z,101169.76
2023-05-03T08:33:18.459Z,101172.49
2023-05-03T08:35:26.657Z,101171.17
2023-05-03T08:37:38.044Z,101174.83
2023-05-03T08:39:46.117Z,101176.59
2023-05-03T08:41:52.918Z,101170.86
2023-05-03T08:44:04.826Z,101173.91
2023-05-03T08:46:14.577Z,101175.59
2023-05-03T08:48:23.845Z,101170.13
2023-05-03T08:50:33.755Z,101167.52
2023-05-03T08:52:48.122Z,101173.87
2023-05-03T08:55:05.845Z,101177.91
2023-05-03T08:57:15.976Z,101181.2
2023-05-03T08:59:23.246Z,101180.19
2023-05-03T09:01:31.166Z,101173.47
2023-05-03T09:03:39.226Z,101172.06
2023-05-03T09:05:49.517Z,101173.78
2023-05-03T09:07:59.380Z,101168.11
2023-05-03T09:10:13.091Z,101171.1
2023-05-03T09:12:26.369Z,101172.75
2023-05-03T09:15:21.346Z,101181.31
2023-05-03T09:24:31.006Z,101184.97
2023-05-03T09:34:26.782Z,101182.43
2023-05-03T09:37:09.256Z,101189.87
2023-05-03T10:07:50.701Z,101180.83
2023-05-03T10:11:00.117Z,101171.75
2023-05-03T10:53:52.471Z,101171.45
2023-05-03T11:26:45.260Z,101181.81
2023-05-03T12:42:55.220Z,101160.38
2023-05-03T12:46:31.977Z,101162.14
2023-05-03T12:48:46.337Z,101157.52
2023-05-03T12:51:25.501Z,101156.89
2023-05-03T12:53:40.810Z,101158.75
2023-05-03T12:56:00.246Z,101161.17
2023-05-03T13:07:07.528Z,101144.2
2023-05-03T13:09:29.499Z,101136.11
2023-05-03T13:12:22.790Z,101148.45
2023-05-03T13:14:32.768Z,101141.34
2023-05-03T13:16:46.467Z,101146.23
2023-05-03T13:18:56.905Z,101147.7
2023-05-03T13:21:06.698Z,101143.7
2023-05-03T13:23:22.747Z,101142.15
2023-05-03T13:25:31.909Z,101142.29
2023-05-03T13:27:44.630Z,101134.52
2023-05-03T13:29:58.808Z,101138.66
2023-05-03T13:32:07.166Z,101135.84
2023-05-03T13:34:18.225Z,101131.66
2023-05-03T13:36:27.215Z,101130.84
2023-05-03T13:38:35.092Z,101125
2023-05-03T13:40:43.290Z,101130.68
2023-05-03T13:42:50.239Z,101131.13
2023-05-03T13:44:59.209Z,101130.8
2023-05-03T13:47:08.407Z,101124.01
2023-05-03T13:49:20.896Z,101126.05
2023-05-03T13:51:34.279Z,101129.3
2023-05-03T13:53:45.822Z,101135.58
2023-05-03T13:55:53.813Z,101129.92
2023-05-03T13:58:08.087Z,101129.03
2023-05-03T14:00:16.991Z,101125.98
2023-05-03T14:02:26.129Z,101123.36
2023-05-03T14:04:39.881Z,101124.46
2023-05-03T14:06:54.116Z,101125.59
2023-05-03T14:09:07.740Z,101126.91
2023-05-03T14:11:18.662Z,101123.59
2023-05-03T14:13:37.454Z,101124.73
2023-05-03T14:16:07.914Z,101116.88
2023-05-03T14:18:20.614Z,101115.11
2023-05-03T14:20:30.511Z,101116.27
2023-05-03T14:22:38.461Z,101117.85
2023-05-03T14:24:46.675Z,101122.91
2023-05-03T14:26:54.427Z,101116.48
2023-05-03T14:29:04.894Z,101120.97
2023-05-03T14:31:15.433Z,101124.25
2023-05-03T14:33:23.509Z,101122.77
2023-05-03T14:35:33.830Z,101127.52
2023-05-03T14:37:42.099Z,101128.3
2023-05-03T14:39:54.139Z,101128.71
2023-05-03T14:42:03.365Z,101129.48
2023-05-03T14:44:14.926Z,101131.52
2023-05-03T14:46:22.461Z,101126.8
2023-05-03T14:48:31.002Z,101130.55
2023-05-03T14:50:41.668Z,101123.69
2023-05-03T14:52:59.795Z,101124.82
2023-05-03T14:55:07.364Z,101127.5
2023-05-03T14:57:15.835Z,101127.64
2023-05-03T14:59:25.044Z,101129.79
2023-05-03T15:01:33.785Z,101130.78
2023-05-03T15:03:45.038Z,101129.63
2023-05-03T15:05:54.290Z,101128.92
2023-05-03T15:08:03.081Z,101127.94
2023-05-03T15:10:11.750Z,101126.82
2023-05-03T15:12:21.867Z,101126.63
2023-05-03T15:14:37.606Z,101125.56
2023-05-03T15:16:46.322Z,101127.17
2023-05-03T15:18:56.765Z,101125.23
2023-05-03T15:21:08.371Z,101137.73
2023-05-03T15:23:19.395Z,101137.03
2023-05-03T15:25:28.524Z,101139.81
2023-05-03T15:27:39.378Z,101137.91
2023-05-03T15:29:47.974Z,101130.96
2023-05-03T15:32:00.065Z,101131.73
2023-05-03T15:34:07.562Z,101132.41
2023-05-03T15:36:15.804Z,101129.92
2023-05-03T15:38:28.256Z,101129.67
2023-05-03T15:40:38.968Z,101132.56
2023-05-03T15:42:50.740Z,101128.8
2023-05-03T15:44:58.982Z,101133.33
2023-05-03T15:47:07.447Z,101131.9
2023-05-03T15:49:18.446Z,101137.49
2023-05-03T15:51:30.126Z,101135.88
2023-05-03T15:53:42.758Z,101136.89
2023-05-03T15:55:51.478Z,101135.61
2023-05-03T15:58:02.828Z,101132.2
2023-05-03T16:00:11.299Z,101131.42
2023-05-03T16:02:23.047Z,101131.28
2023-05-03T16:04:30.520Z,101131.72
2023-05-03T16:06:38.485Z,101134.49
2023-05-03T16:08:47.788Z,101137.61
2023-05-03T16:11:03.801Z,101136.19
2023-05-03T16:13:25.924Z,101126.58
2023-05-03T16:15:35.578Z,101121.88
2023-05-03T16:17:45.287Z,101129.92
2023-05-03T16:19:56.522Z,101127.76
2023-05-03T16:22:04.725Z,101129.97
2023-05-03T16:24:14.853Z,101132.33
2023-05-03T16:26:28.113Z,101135.42
2023-05-03T16:28:42.523Z,101138.29
2023-05-03T16:30:52.853Z,101137.38
2023-05-03T16:33:00.449Z,101140.23
2023-05-03T16:35:08.940Z,101144.95
2023-05-03T16:37:20.068Z,101146.23
2023-05-03T16:39:29.838Z,101143.09
2023-05-03T16:41:38.244Z,101140.77
2023-05-03T16:43:47.860Z,101138.73
2023-05-03T16:45:56.325Z,101140.31
2023-05-03T16:48:10.406Z,101149.41
2023-05-03T16:50:19.392Z,101144.33
2023-05-03T16:52:31.157Z,101144.41
2023-05-03T16:54:40.089Z,101146.9
2023-05-03T16:57:11.024Z,101145.58
2023-05-03T16:59:38.036Z,101145.07
2023-05-03T17:01:53.043Z,101149.89
2023-05-03T17:04:23.386Z,101147.39
2023-05-03T17:06:32.484Z,101147.19
2023-05-03T17:08:58.678Z,101147.57
2023-05-03T17:14:32.382Z,101146.14
2023-05-03T17:16:46.635Z,101150
2023-05-03T17:19:10.177Z,101151.45
2023-05-03T17:21:33.823Z,101151.5
2023-05-03T17:23:42.770Z,101153.66
2023-05-03T17:25:57.105Z,101157.03
2023-05-03T17:28:16.499Z,101158.08
2023-05-03T17:30:30.942Z,101158.08
2023-05-03T17:32:45.270Z,101157.75
2023-05-03T17:35:19.757Z,101158.58
2023-05-03T17:37:28.212Z,101161.67
2023-05-03T17:39:36.343Z,101161.33
2023-05-03T17:41:59.473Z,101159.86
2023-05-03T17:44:16.287Z,101165.2
2023-05-03T17:46:24.096Z,101167.64
2023-05-03T17:48:38.069Z,101171.95
2023-05-03T17:50:49.265Z,101178.93
2023-05-03T17:53:15.183Z,101175.34
2023-05-03T17:55:31.519Z,101181.19
2023-05-03T17:57:42.580Z,101180.08
2023-05-03T17:59:54.573Z,101181.64
2023-05-03T18:02:11.243Z,101184.49
2023-05-03T18:04:22.153Z,101186.84
2023-05-03T18:06:36.557Z,101184.77
2023-05-03T18:08:49.913Z,101189.8
2023-05-03T18:10:57.944Z,101191.73
2023-05-03T18:13:07.777Z,101194.55
2023-05-03T18:15:21.258Z,101197.08
2023-05-03T18:17:29.443Z,101195.81
2023-05-03T18:19:37.510Z,101198.35
2023-05-03T18:21:57.051Z,101197.48
2023-05-03T18:24:08.257Z,101193.37
2023-05-03T18:26:18.106Z,101194
2023-05-03T18:28:35.380Z,101195.41
2023-05-03T18:31:08.667Z,101201.56
2023-05-03T18:36:00.455Z,101202.67
2023-05-03T18:38:26.956Z,101203.33
2023-05-03T18:40:50.034Z,101201.16
2023-05-03T18:43:06.872Z,101207.27
2023-05-03T18:45:25.518Z,101205.42
2023-05-03T18:47:38.974Z,101203.06
2023-05-03T18:49:54.288Z,101201.67
2023-05-03T18:52:07.684Z,101203.2
2023-05-03T18:54:23.985Z,101205.31
2023-05-03T18:56:34.529Z,101205.32
2023-05-03T18:58:45.321Z,101202.02
2023-05-03T19:00:59.789Z,101207.66
2023-05-03T19:03:19.947Z,101204.73
2023-05-03T19:05:42.429Z,101207.73
2023-05-03T19:07:59.767Z,101210.47
2023-05-03T19:10:10.369Z,101211.52
2023-05-03T19:12:23.755Z,101212.06
2023-05-03T19:14:37.699Z,101215.61
2023-05-03T19:16:55.930Z,101217.09
2023-05-03T19:19:17.366Z,101217.49
2023-05-03T19:21:26.919Z,101217.56
2023-05-03T19:23:37.233Z,101213.38
2023-05-03T19:25:50.332Z,101217.52
2023-05-03T19:28:04.923Z,101222.88
2023-05-03T19:30:19.066Z,101220.47
2023-05-03T19:32:50.641Z,101221.36
2023-05-03T19:35:08.827Z,101220.25
2023-05-03T19:37:24.354Z,101221.25
2023-05-03T19:39:34.529Z,101227.38
2023-05-03T19:41:47.237Z,101226.16
2023-05-03T19:43:57.125Z,101225.88
2023-05-03T19:46:13.450Z,101230.19
2023-05-03T19:48:27.587Z,101225.86
2023-05-03T19:50:44.556Z,101227.64
2023-05-03T19:53:05.111Z,101226.91
2023-05-03T19:55:18.484Z,101225.95
2023-05-03T19:57:29.768Z,101228.31
2023-05-03T19:59:43.879Z,101230.5
2023-05-03T20:01:56.986Z,101234.84
2023-05-03T20:04:20.072Z,101228.7
2023-05-03T20:06:36.904Z,101233.48
2023-05-03T20:08:54.936Z,101236.89
2023-05-03T20:11:05.054Z,101239.06
2023-05-03T20:13:15.281Z,101241.37
2023-05-03T20:15:24.002Z,101238.84
2023-05-03T20:17:37.616Z,101238.73
2023-05-03T20:20:03.551Z,101233.74
2023-05-03T20:22:31.387Z,101231.23
2023-05-03T20:24:43.536Z,101229.04
2023-05-03T20:26:54.930Z,101230.55
2023-05-03T20:29:05.914Z,101232.72
2023-05-03T20:31:18.297Z,101228.76
2023-05-03T20:33:32.626Z,101233.05
2023-05-03T20:35:41.320Z,101236.55
2023-05-03T20:37:49.554Z,101234.77
2023-05-03T20:40:08.299Z,101231.59
2023-05-03T20:42:20.601Z,101237.86
2023-05-03T20:44:34.466Z,101236.47
2023-05-03T20:46:43.174Z,101238.38
2023-05-03T20:48:52.853Z,101237.58
2023-05-03T20:51:03.744Z,101239.64
2023-05-03T20:53:16.419Z,101238.8
2023-05-03T20:55:33.392Z,101241.13
2023-05-03T20:57:43.985Z,101241.61
2023-05-03T20:59:56.261Z,101238.2
2023-05-03T21:02:03.782Z,101237.37
2023-05-03T21:04:12.753Z,101234.01
2023-05-03T21:06:24.576Z,101230
2023-05-03T21:08:32.546Z,101233.01
2023-05-03T21:10:40.634Z,101236.94
2023-05-03T21:12:53.670Z,101233.53
2023-05-03T21:15:04.709Z,101232.11
2023-05-03T21:17:13.094Z,101232.91
2023-05-03T21:19:21.963Z,101231.09
2023-05-03T21:21:30.077Z,101235.02
2023-05-03T21:23:40.982Z,101230.94
2023-05-03T21:25:50.098Z,101234.54
2023-05-03T21:28:06.501Z,101230.59
2023-05-03T21:30:19.435Z,101224.22
2023-05-03T21:32:29.489Z,101226.85
2023-05-03T21:34:38.081Z,101224.34
2023-05-03T21:36:47.275Z,101227.89
2023-05-03T21:38:55.914Z,101225.98
2023-05-03T21:41:07.231Z,101225.63
2023-05-03T21:43:15.191Z,101227.58
2023-05-03T21:45:24.034Z,101228.44
2023-05-03T21:47:40.221Z,101225.23
2023-05-03T21:49:56.497Z,101227.01
2023-05-03T21:52:09.696Z,101227.7
2023-05-03T21:54:20.267Z,101230.42
2023-05-03T21:56:27.869Z,101230.13
2023-05-03T21:58:40.804Z,101233.26
2023-05-03T22:00:51.466Z,101235.47
2023-05-03T22:03:01.938Z,101241.59
2023-05-03T22:05:19.850Z,101240.77
2023-05-03T22:07:30.356Z,101238.56
2023-05-03T22:09:39.662Z,101239.36
2023-05-03T22:11:51.901Z,101244.17
2023-05-03T22:14:09.959Z,101241.5
2023-05-03T22:16:19.238Z,101245.09
2023-05-03T22:18:27.883Z,101247.19
2023-05-03T22:20:40.659Z,101245.27
2023-05-03T22:22:47.435Z,101248.2
2023-05-03T22:24:54.098Z,101243.36
2023-05-03T22:27:00.840Z,101241.02
2023-05-03T22:29:14.204Z,101251.42
2023-05-03T22:31:21.996Z,101245.92
2023-05-03T22:33:31.985Z,101251.75
2023-05-03T22:35:38.653Z,101247.72
2023-05-03T22:37:47.842Z,101252.28
2023-05-03T22:39:55.088Z,101253.59
2023-05-03T22:42:02.512Z,101251.54
2023-05-03T22:44:14.853Z,101248.95
2023-05-03T22:46:21.779Z,101251.57
2023-05-03T22:48:32.689Z,101251.76
2023-05-03T22:50:41.500Z,101249.08
2023-05-03T22:52:48.650Z,101253.65
2023-05-03T22:54:58.335Z,101252.6
2023-05-03T22:57:05.562Z,101254.41
2023-05-03T22:59:12.385Z,101255.2
2023-05-03T23:01:19.915Z,101253.8
2023-05-03T23:03:33.756Z,101256.38
2023-05-03T23:05:41.326Z,101256.02
2023-05-03T23:07:47.977Z,101251.16
2023-05-03T23:09:57.056Z,101249.44
2023-05-03T23:12:03.740Z,101252.47
2023-05-03T23:14:15.549Z,101253.95
2023-05-03T23:16:27.520Z,101252.87
2023-05-03T23:18:34.353Z,101253.28
2023-05-03T23:20:42.354Z,101250.51
2023-05-03T23:22:51.996Z,101249.49
2023-05-03T23:24:59.284Z,101246.55
2023-05-03T23:27:09.736Z,101243.48
2023-05-03T23:29:18.186Z,101244.8
2023-05-03T23:31:28.120Z,101243.91
2023-05-03T23:33:43.316Z,101245.87
2023-05-03T23:35:50.084Z,101245.11
2023-05-03T23:37:57.529Z,101242.61
2023-05-03T23:40:05.220Z,101246.53
2023-05-03T23:42:15.555Z,101243.14
2023-05-03T23:44:24.645Z,101246.52
2023-05-03T23:46:59.227Z,101245.45
2023-05-03T23:49:06.140Z,101241.53
2023-05-03T23:51:12.573Z,101243.45
2023-05-03T23:53:21.735Z,101243.83
2023-05-03T23:55:28.388Z,101243.83
2023-05-03T23:57:37.492Z,101244.52
2023-05-03T23:59:48.178Z,101242.61
